Time;durP1;ratioP1;P1;durP2;ratioP2;P2;SDS_P1;SDS_P2;PMS_P1;PMS_P2;Temp;Humidity;BMP_temperature;BMP_pressure;BME280_temperature;BME280_humidity;BME280_pressure;Samples;Min_cycle;Max_cycle;Signal;HPM_P1;HPM_P2
2023/12/25 00:02:12;;;;;;;14.07;8.38;;;;;;;;;;5066665;28;20059;-64
2023/12/25 00:04:56;;;;;;;15.45;8.82;;;;;;;;;;5069024;28;20067;-63
2023/12/25 00:07:22;;;;;;;15.40;8.93;;;;;;;;;;5062556;28;20052;-63
2023/12/25 00:09:52;;;;;;;13.50;8.23;;;;;;;;;;5058450;28;20313;-63
2023/12/25 00:12:18;;;;;;;14.80;8.68;;;;;;;;;;5062932;28;20036;-64
2023/12/25 00:14:44;;;;;;;17.20;8.90;;;;;;;;;;5064511;28;20037;-62
2023/12/25 00:17:15;;;;;;;12.65;8.43;;;;;;;;;;5057959;28;20061;-63
2023/12/25 00:19:58;;;;;;;18.83;9.32;;;;;;;;;;5062438;28;20037;-63
2023/12/25 00:22:52;;;;;;;14.57;9.40;;;;;;;;;;5063772;28;20108;-62
2023/12/25 00:25:58;;;;;;;17.13;9.07;;;;;;;;;;5063452;28;20044;-64
2023/12/25 00:28:24;;;;;;;14.90;9.05;;;;;;;;;;5061665;28;20132;-68
2023/12/25 00:30:51;;;;;;;18.45;10.00;;;;;;;;;;5061053;28;20068;-63
2023/12/25 00:33:19;;;;;;;18.88;9.70;;;;;;;;;;5063425;28;20036;-68
2023/12/25 00:35:54;;;;;;;14.63;8.77;;;;;;;;;;5065433;28;20348;-65
2023/12/25 00:38:51;;;;;;;15.45;9.63;;;;;;;;;;5080013;28;20063;-67
2023/12/25 00:41:17;;;;;;;13.88;9.07;;;;;;;;;;5094469;27;20052;-63
2023/12/25 00:43:51;;;;;;;17.40;9.10;;;;;;;;;;5063290;28;20044;-60
2023/12/25 00:46:54;;;;;;;16.45;9.23;;;;;;;;;;5063833;28;20037;-64
2023/12/25 00:49:59;;;;;;;17.70;8.75;;;;;;;;;;5089199;27;20086;-62
2023/12/25 00:52:56;;;;;;;16.55;9.07;;;;;;;;;;5059785;28;20056;-62
2023/12/25 00:55:51;;;;;;;16.25;8.80;;;;;;;;;;5095470;28;20048;-63
2023/12/25 00:58:55;;;;;;;16.73;8.23;;;;;;;;;;5040367;28;20412;-62
2023/12/25 01:01:21;;;;;;;11.82;8.02;;;;;;;;;;5064180;28;20059;-63
2023/12/25 01:03:55;;;;;;;16.63;8.40;;;;;;;;;;5065050;28;20052;-63
2023/12/25 01:06:43;;;;;;;;;;;;;;;;;;5061506;28;20083;-64
2023/12/25 01:09:18;;;;;;;12.23;7.60;;;;;;;;;;5064460;28;20373;-62
2023/12/25 01:11:52;;;;;;;15.88;8.40;;;;;;;;;;5064977;28;20056;-62
2023/12/25 01:14:55;;;;;;;14.32;8.35;;;;;;;;;;5071135;28;20048;-63
2023/12/25 01:17:21;;;;;;;19.20;8.35;;;;;;;;;;5068070;28;20060;-64
2023/12/25 01:19:47;;;;;;;11.48;8.40;;;;;;;;;;5063179;28;20126;-61
2023/12/25 01:22:13;;;;;;;12.45;8.05;;;;;;;;;;5065142;28;20244;-62
2023/12/25 01:24:58;;;;;;;11.80;7.50;;;;;;;;;;5055157;28;21862;-64
2023/12/25 01:28:04;;;;;;;15.90;7.93;;;;;;;;;;5062624;28;20052;-63
2023/12/25 01:31:44;;;;;;;11.50;7.43;;;;;;;;;;5066215;28;20063;-63
2023/12/25 01:34:57;;;;;;;12.25;7.50;;;;;;;;;;5064696;28;20178;-65
2023/12/25 01:37:23;;;;;;;14.00;6.70;;;;;;;;;;5062356;28;20049;-62
2023/12/25 01:39:51;;;;;;;12.63;6.95;;;;;;;;;;5056485;28;20066;-64
2023/12/25 01:42:17;;;;;;;12.70;7.38;;;;;;;;;;5063051;28;20408;-61
2023/12/25 01:44:52;;;;;;;12.60;7.55;;;;;;;;;;5044462;28;20106;-60
2023/12/25 01:47:57;;;;;;;15.82;6.82;;;;;;;;;;5057626;28;20041;-62
2023/12/25 01:50:51;;;;;;;10.98;6.88;;;;;;;;;;5052497;28;20051;-62
2023/12/25 01:53:17;;;;;;;12.23;7.13;;;;;;;;;;5060939;28;20067;-62
2023/12/25 01:55:43;;;;;;;14.30;6.75;;;;;;;;;;5060628;28;20048;-62
2023/12/25 01:58:09;;;;;;;9.40;6.70;;;;;;;;;;5065884;28;20044;-64
2023/12/25 02:00:52;;;;;;;14.05;7.05;;;;;;;;;;5077232;28;20138;-62
2023/12/25 02:03:55;;;;;;;11.57;7.22;;;;;;;;;;5056889;28;20639;-65
2023/12/25 02:06:50;;;;;;;13.00;6.85;;;;;;;;;;5064192;28;20048;-64
2023/12/25 02:09:17;;;;;;;13.60;7.15;;;;;;;;;;5070653;28;20167;-61
2023/12/25 02:11:43;;;;;;;15.43;6.75;;;;;;;;;;5066451;28;20155;-62
2023/12/25 02:14:12;;;;;;;13.60;6.43;;;;;;;;;;5055574;28;20056;-61
2023/12/25 02:16:40;;;;;;;13.82;6.60;;;;;;;;;;5061381;28;20048;-66
2023/12/25 02:19:30;;;;;;;13.57;6.25;;;;;;;;;;5064806;28;20158;-62
2023/12/25 02:22:18;;;;;;;9.95;5.90;;;;;;;;;;5062346;28;20411;-60
2023/12/25 02:25:01;;;;;;;11.05;5.53;;;;;;;;;;5062858;28;20037;-64
2023/12/25 02:27:52;;;;;;;12.57;5.83;;;;;;;;;;5062024;28;20127;-64
2023/12/25 02:30:18;;;;;;;15.98;7.05;;;;;;;;;;5093888;27;20060;-64
2023/12/25 02:32:44;;;;;;;10.10;6.70;;;;;;;;;;5057810;28;20053;-60
2023/12/25 02:35:12;;;;;;;13.25;7.28;;;;;;;;;;5090652;27;20048;-61
2023/12/25 02:37:55;;;;;;;10.73;7.00;;;;;;;;;;5094458;27;20058;-65
2023/12/25 02:40:58;;;;;;;13.02;7.22;;;;;;;;;;5066353;28;20060;-64
2023/12/25 02:43:53;;;;;;;9.50;6.78;;;;;;;;;;5066019;28;20052;-62
2023/12/25 02:46:19;;;;;;;11.10;7.00;;;;;;;;;;5092146;27;20093;-62
2023/12/25 02:48:54;;;;;;;18.58;7.20;;;;;;;;;;5064646;28;20083;-61
2023/12/25 02:51:58;;;;;;;14.98;6.65;;;;;;;;;;5058724;28;20053;-61
2023/12/25 02:54:24;;;;;;;11.43;7.03;;;;;;;;;;5056816;28;20048;-62
2023/12/25 02:56:50;;;;;;;13.52;7.45;;;;;;;;;;5062847;28;20067;-61
2023/12/25 02:59:17;;;;;;;12.85;8.52;;;;;;;;;;5064130;28;20144;-61
2023/12/25 03:01:51;;;;;;;12.30;7.43;;;;;;;;;;5059267;28;20422;-61
2023/12/25 03:04:17;;;;;;;13.70;7.75;;;;;;;;;;5067916;28;20066;-61
2023/12/25 03:06:52;;;;;;;12.48;7.22;;;;;;;;;;5061933;28;20053;-62
2023/12/25 03:09:18;;;;;;;;;;;;;;;;;;5064143;28;20045;-62
2023/12/25 03:11:45;;;;;;;13.40;7.43;;;;;;;;;;5066388;28;20037;-59
2023/12/25 03:14:11;;;;;;;13.20;7.10;;;;;;;;;;5096276;27;20033;-61
2023/12/25 03:16:54;;;;;;;12.50;7.80;;;;;;;;;;5060682;28;20052;-64
2023/12/25 03:19:20;;;;;;;12.55;7.47;;;;;;;;;;5067835;28;20500;-62
2023/12/25 03:21:54;;;;;;;12.25;6.88;;;;;;;;;;5064300;28;20055;-60
2023/12/25 03:24:20;;;;;;;13.90;7.57;;;;;;;;;;5060461;28;20067;-61
2023/12/25 03:26:47;;;;;;;13.73;7.93;;;;;;;;;;5057783;28;20164;-60
2023/12/25 03:29:13;;;;;;;12.95;7.28;;;;;;;;;;5069219;28;20130;-62
2023/12/25 03:31:59;;;;;;;13.98;7.20;;;;;;;;;;5064261;28;20097;-62
2023/12/25 03:34:51;;;;;;;11.48;7.75;;;;;;;;;;5059646;28;20105;-60
2023/12/25 03:37:17;;;;;;;12.50;7.38;;;;;;;;;;5060253;28;20044;-60
2023/12/25 03:39:43;;;;;;;12.63;7.05;;;;;;;;;;5065677;28;20079;-60
2023/12/25 03:42:09;;;;;;;11.30;7.55;;;;;;;;;;5060537;28;20057;-60
2023/12/25 03:44:53;;;;;;;10.80;6.97;;;;;;;;;;5066625;28;20531;-61
2023/12/25 03:47:20;;;;;;;11.50;6.95;;;;;;;;;;5059458;28;20592;-61
2023/12/25 03:49:54;;;;;;;10.45;6.68;;;;;;;;;;5063082;28;20527;-61
2023/12/25 03:52:20;;;;;;;10.15;6.57;;;;;;;;;;5062180;28;20106;-60
2023/12/25 03:54:51;;;;;;;12.00;7.10;;;;;;;;;;5062802;28;20176;-61
2023/12/25 03:57:16;;;;;;;12.82;6.95;;;;;;;;;;5059717;28;20148;-61
2023/12/25 03:59:42;;;;;;;12.15;6.43;;;;;;;;;;5066956;28;20060;-61
2023/12/25 04:02:28;;;;;;;10.88;6.78;;;;;;;;;;5061159;28;20492;-60
2023/12/25 04:04:54;;;;;;;10.63;6.68;;;;;;;;;;5069079;28;20490;-62
2023/12/25 04:07:20;;;;;;;11.55;7.07;;;;;;;;;;5061296;28;20131;-65
2023/12/25 04:09:46;;;;;;;10.77;6.43;;;;;;;;;;5066260;28;20099;-61
2023/12/25 04:12:12;;;;;;;10.38;6.72;;;;;;;;;;5044816;28;20052;-62
2023/12/25 04:14:56;;;;;;;10.18;6.68;;;;;;;;;;5061651;28;20101;-63
2023/12/25 04:17:21;;;;;;;10.35;6.38;;;;;;;;;;5076581;28;20049;-69
2023/12/25 04:19:47;;;;;;;12.57;7.32;;;;;;;;;;5052400;28;20106;-61
2023/12/25 04:22:13;;;;;;;8.45;6.03;;;;;;;;;;5061221;28;20049;-63
2023/12/25 04:24:39;;;;;;;11.60;6.45;;;;;;;;;;5061779;28;20052;-61
2023/12/25 04:27:07;;;;;;;11.07;6.57;;;;;;;;;;5066701;28;20411;-63
2023/12/25 04:29:33;;;;;;;8.02;5.80;;;;;;;;;;5062967;28;20492;-59
2023/12/25 04:31:59;;;;;;;12.07;7.10;;;;;;;;;;5060172;28;20049;-64
2023/12/25 04:34:25;;;;;;;11.10;6.80;;;;;;;;;;5060029;28;20154;-61
2023/12/25 04:36:51;;;;;;;12.10;6.50;;;;;;;;;;5062240;28;20080;-60
2023/12/25 04:39:17;;;;;;;10.35;6.70;;;;;;;;;;5061670;28;20135;-63
2023/12/25 04:41:43;;;;;;;10.00;6.40;;;;;;;;;;5065422;28;20131;-61
2023/12/25 04:44:10;;;;;;;11.48;6.40;;;;;;;;;;5058602;28;20110;-60
2023/12/25 04:46:36;;;;;;;12.25;6.53;;;;;;;;;;5059718;28;20083;-60
2023/12/25 04:49:03;;;;;;;14.40;6.40;;;;;;;;;;5058984;28;20118;-62
2023/12/25 04:51:29;;;;;;;10.65;6.10;;;;;;;;;;5059091;28;20377;-61
2023/12/25 04:53:55;;;;;;;12.32;5.85;;;;;;;;;;5062287;28;20496;-61
2023/12/25 04:56:21;;;;;;;10.57;5.93;;;;;;;;;;5065854;28;20095;-60
2023/12/25 04:58:47;;;;;;;11.65;6.03;;;;;;;;;;5062414;28;20063;-61
2023/12/25 05:01:13;;;;;;;12.05;6.43;;;;;;;;;;5060689;28;20056;-60
2023/12/25 05:03:39;;;;;;;11.07;6.32;;;;;;;;;;5057619;28;20125;-60
2023/12/25 05:06:05;;;;;;;9.68;5.80;;;;;;;;;;5060538;28;20044;-61
2023/12/25 05:08:31;;;;;;;10.75;5.95;;;;;;;;;;5062834;28;20382;-62
2023/12/25 05:10:57;;;;;;;9.65;5.80;;;;;;;;;;5063916;28;20134;-62
2023/12/25 05:13:23;;;;;;;10.73;5.47;;;;;;;;;;5052642;28;20067;-60
2023/12/25 05:15:49;;;;;;;8.88;5.25;;;;;;;;;;5063044;28;20603;-61
2023/12/25 05:18:15;;;;;;;9.05;5.82;;;;;;;;;;5057779;28;20505;-61
2023/12/25 05:20:41;;;;;;;9.15;5.18;;;;;;;;;;5065538;28;20062;-61
2023/12/25 05:23:07;;;;;;;9.35;5.03;;;;;;;;;;5058480;28;20051;-61
2023/12/25 05:25:53;;;;;;;10.77;6.57;;;;;;;;;;5076397;28;20241;-61
2023/12/25 05:28:20;;;;;;;13.50;6.25;;;;;;;;;;5058657;28;20060;-60
2023/12/25 05:30:46;;;;;;;11.23;6.05;;;;;;;;;;5061671;28;20151;-59
2023/12/25 05:33:13;;;;;;;8.73;6.07;;;;;;;;;;5059633;28;20154;-63
2023/12/25 05:35:39;;;;;;;11.07;6.20;;;;;;;;;;5064805;28;20136;-61
2023/12/25 05:38:05;;;;;;;10.02;6.85;;;;;;;;;;5060885;28;20524;-61
2023/12/25 05:40:30;;;;;;;11.02;6.15;;;;;;;;;;5059192;28;20507;-61
2023/12/25 05:42:57;;;;;;;12.52;6.45;;;;;;;;;;5058938;28;20192;-63
2023/12/25 05:45:23;;;;;;;12.82;6.78;;;;;;;;;;5062896;28;20081;-61
2023/12/25 05:47:49;;;;;;;10.80;6.13;;;;;;;;;;5057695;28;20052;-62
2023/12/25 05:50:15;;;;;;;12.57;6.40;;;;;;;;;;5065394;28;20097;-62
2023/12/25 05:52:41;;;;;;;11.18;6.80;;;;;;;;;;5060867;28;20052;-63
2023/12/25 05:55:07;;;;;;;12.35;6.07;;;;;;;;;;5065027;28;20243;-61
2023/12/25 05:57:33;;;;;;;13.40;6.68;;;;;;;;;;5061312;28;20079;-61
2023/12/25 05:59:59;;;;;;;11.13;7.00;;;;;;;;;;5060672;28;20040;-60
2023/12/25 06:02:25;;;;;;;12.10;6.63;;;;;;;;;;5058766;28;20052;-62
2023/12/25 06:04:51;;;;;;;11.18;6.78;;;;;;;;;;5057400;28;20113;-64
2023/12/25 06:07:17;;;;;;;13.18;7.40;;;;;;;;;;5051270;28;20537;-61
2023/12/25 06:09:44;;;;;;;13.25;7.28;;;;;;;;;;5059831;28;20508;-60
2023/12/25 06:12:13;;;;;;;12.63;7.45;;;;;;;;;;5063523;28;20552;-62
2023/12/25 06:14:56;;;;;;;11.55;6.80;;;;;;;;;;5059192;28;20555;-61
2023/12/25 06:17:51;;;;;;;15.25;6.82;;;;;;;;;;5059054;28;20053;-62
2023/12/25 06:20:17;;;;;;;10.98;6.75;;;;;;;;;;5064051;28;20539;-62
2023/12/25 06:22:43;;;;;;;9.70;6.45;;;;;;;;;;5057733;28;20048;-61
2023/12/25 06:25:09;;;;;;;9.38;6.20;;;;;;;;;;5061880;28;20051;-61
2023/12/25 06:27:35;;;;;;;10.77;6.10;;;;;;;;;;5051983;28;20126;-62
2023/12/25 06:30:01;;;;;;;11.88;6.05;;;;;;;;;;5065496;28;20121;-60
2023/12/25 06:32:51;;;;;;;9.07;6.15;;;;;;;;;;5056315;28;20087;-62
2023/12/25 06:35:17;;;;;;;9.25;5.88;;;;;;;;;;5055603;28;20220;-63
2023/12/25 06:37:52;;;;;;;12.65;6.40;;;;;;;;;;5053059;28;20454;-60
2023/12/25 06:40:18;;;;;;;10.02;6.28;;;;;;;;;;5061044;28;20049;-61
2023/12/25 06:42:52;;;;;;;9.75;5.97;;;;;;;;;;5057843;28;20053;-62
2023/12/25 06:45:18;;;;;;;9.30;6.40;;;;;;;;;;5058300;28;20040;-62
2023/12/25 06:47:45;;;;;;;9.98;5.95;;;;;;;;;;5060047;28;20105;-62
2023/12/25 06:50:11;;;;;;;9.85;5.57;;;;;;;;;;5065666;28;20048;-62
2023/12/25 06:52:54;;;;;;;9.60;5.80;;;;;;;;;;5064591;28;20045;-62
2023/12/25 06:55:59;;;;;;;10.07;5.80;;;;;;;;;;5057972;28;20037;-61
2023/12/25 06:58:52;;;;;;;8.77;5.35;;;;;;;;;;5063838;28;20052;-63
2023/12/25 07:01:54;;;;;;;10.63;5.78;;;;;;;;;;5059999;28;20090;-64
2023/12/25 07:04:21;;;;;;;12.85;5.88;;;;;;;;;;5065114;28;20492;-62
2023/12/25 07:06:51;;;;;;;9.80;5.07;;;;;;;;;;5065791;28;20489;-63
2023/12/25 07:09:19;;;;;;;6.85;4.38;;;;;;;;;;5044365;28;20519;-61
2023/12/25 07:11:44;;;;;;;6.25;4.28;;;;;;;;;;5062918;28;20060;-62
2023/12/25 07:14:11;;;;;;;6.78;4.13;;;;;;;;;;5063504;28;20053;-63
2023/12/25 07:16:54;;;;;;;8.07;4.10;;;;;;;;;;5076352;28;20665;-60
2023/12/25 07:19:57;;;;;;;6.05;3.80;;;;;;;;;;5061270;28;20470;-62
2023/12/25 07:22:24;;;;;;;8.65;4.18;;;;;;;;;;5058954;28;20064;-63
2023/12/25 07:24:50;;;;;;;7.35;4.13;;;;;;;;;;5066215;28;20101;-61
2023/12/25 07:27:56;;;;;;;9.07;4.22;;;;;;;;;;5055980;28;20061;-60
2023/12/25 07:30:23;;;;;;;9.30;4.20;;;;;;;;;;5059579;28;20064;-63
2023/12/25 07:32:51;;;;;;;6.35;3.92;;;;;;;;;;5056354;28;20787;-61
2023/12/25 07:35:18;;;;;;;7.25;4.20;;;;;;;;;;5080259;28;20158;-62
2023/12/25 07:37:52;;;;;;;8.88;4.50;;;;;;;;;;5058627;28;20552;-62
2023/12/25 07:40:57;;;;;;;5.97;4.00;;;;;;;;;;5074100;28;20432;-62
2023/12/25 07:43:24;;;;;;;11.10;4.40;;;;;;;;;;5053453;28;20480;-61
2023/12/25 07:45:50;;;;;;;9.05;4.30;;;;;;;;;;5044387;28;20130;-61
2023/12/25 07:48:16;;;;;;;8.65;4.63;;;;;;;;;;5054877;28;20052;-60
2023/12/25 07:50:59;;;;;;;11.00;3.95;;;;;;;;;;5058812;28;20532;-63
2023/12/25 07:53:25;;;;;;;5.43;3.63;;;;;;;;;;5053240;28;20624;-61
2023/12/25 07:55:51;;;;;;;7.50;3.83;;;;;;;;;;5054235;28;20039;-61
2023/12/25 07:58:17;;;;;;;7.43;3.50;;;;;;;;;;5062484;28;20424;-63
2023/12/25 08:00:43;;;;;;;6.70;3.60;;;;;;;;;;5059487;28;20067;-61
2023/12/25 08:03:12;;;;;;;9.35;3.50;;;;;;;;;;5049888;28;20454;-62
2023/12/25 08:05:41;;;;;;;7.47;3.70;;;;;;;;;;5053678;28;20083;-61
2023/12/25 08:08:07;;;;;;;8.73;3.33;;;;;;;;;;5052191;28;20055;-61
2023/12/25 08:10:34;;;;;;;5.47;3.42;;;;;;;;;;5057501;28;20140;-66
2023/12/25 08:13:02;;;;;;;6.57;3.58;;;;;;;;;;5058144;28;20056;-62
2023/12/25 08:15:30;;;;;;;5.68;3.70;;;;;;;;;;5059456;28;20053;-62
2023/12/25 08:17:56;;;;;;;8.25;3.30;;;;;;;;;;5052365;28;20409;-61
2023/12/25 08:20:22;;;;;;;5.10;3.40;;;;;;;;;;5057993;28;20932;-63
2023/12/25 08:22:50;;;;;;;6.22;3.50;;;;;;;;;;5058511;28;20056;-63
2023/12/25 08:25:18;;;;;;;9.48;3.30;;;;;;;;;;5058859;28;20047;-68
2023/12/25 08:27:44;;;;;;;5.88;3.05;;;;;;;;;;5056578;28;20080;-61
2023/12/25 08:30:11;;;;;;;5.70;3.03;;;;;;;;;;5049486;28;20144;-59
2023/12/25 08:32:37;;;;;;;7.47;3.50;;;;;;;;;;5047510;28;20052;-62
2023/12/25 08:35:04;;;;;;;8.30;3.08;;;;;;;;;;5054818;28;20059;-62
2023/12/25 08:37:31;;;;;;;11.32;3.47;;;;;;;;;;5052091;28;20381;-61
2023/12/25 08:40:00;;;;;;;6.55;2.92;;;;;;;;;;5054866;28;21548;-63
2023/12/25 08:42:26;;;;;;;6.13;2.92;;;;;;;;;;5052326;28;20047;-61
2023/12/25 08:44:53;;;;;;;4.03;2.47;;;;;;;;;;5051824;28;20045;-62
2023/12/25 08:47:20;;;;;;;5.70;2.63;;;;;;;;;;5055595;28;20060;-61
2023/12/25 08:49:48;;;;;;;4.57;2.40;;;;;;;;;;5053177;28;20055;-62
2023/12/25 08:52:16;;;;;;;7.47;2.30;;;;;;;;;;5058324;28;20048;-62
2023/12/25 08:54:42;;;;;;;6.93;2.20;;;;;;;;;;5054375;28;20386;-61
2023/12/25 08:57:09;;;;;;;7.15;2.50;;;;;;;;;;5053986;28;20044;-61
2023/12/25 08:59:36;;;;;;;5.72;2.20;;;;;;;;;;5054435;28;20109;-61
2023/12/25 09:02:03;;;;;;;4.25;2.50;;;;;;;;;;5049680;28;20056;-60
2023/12/25 09:04:31;;;;;;;9.40;2.85;;;;;;;;;;5047530;28;20117;-63
2023/12/25 09:06:56;;;;;;;3.97;2.75;;;;;;;;;;5068638;28;20148;-61
2023/12/25 09:09:23;;;;;;;10.00;2.45;;;;;;;;;;5052540;28;20049;-61
2023/12/25 09:11:49;;;;;;;8.80;2.38;;;;;;;;;;5055303;28;20045;-60
2023/12/25 09:14:16;;;;;;;2.55;2.08;;;;;;;;;;5053091;28;20059;-63
2023/12/25 09:16:42;;;;;;;5.82;2.50;;;;;;;;;;5056371;28;20072;-64
2023/12/25 09:19:10;;;;;;;3.40;2.33;;;;;;;;;;5050932;28;20177;-63
2023/12/25 09:21:39;;;;;;;4.57;2.63;;;;;;;;;;5049461;28;20129;-65
2023/12/25 09:24:06;;;;;;;4.78;3.00;;;;;;;;;;5051514;28;20061;-62
2023/12/25 09:26:32;;;;;;;8.18;3.13;;;;;;;;;;5045840;28;20049;-63
2023/12/25 09:28:58;;;;;;;4.25;2.45;;;;;;;;;;5042273;28;21116;-62
2023/12/25 09:31:25;;;;;;;7.18;3.40;;;;;;;;;;5045073;28;20358;-64
2023/12/25 09:33:51;;;;;;;4.63;2.70;;;;;;;;;;5044592;28;20040;-63
2023/12/25 09:36:17;;;;;;;5.53;2.88;;;;;;;;;;5050538;28;20436;-64
2023/12/25 09:38:43;;;;;;;6.65;2.90;;;;;;;;;;5050512;28;20481;-63
2023/12/25 09:41:11;;;;;;;12.27;4.47;;;;;;;;;;5050095;28;20063;-61
2023/12/25 09:43:41;;;;;;;9.82;3.55;;;;;;;;;;5049064;28;20121;-62
2023/12/25 09:46:09;;;;;;;5.20;3.03;;;;;;;;;;5050202;28;20444;-63
2023/12/25 09:48:38;;;;;;;6.90;2.90;;;;;;;;;;5054508;28;20405;-61
2023/12/25 09:51:09;;;;;;;10.93;2.80;;;;;;;;;;5054408;28;20513;-63
2023/12/25 09:53:35;;;;;;;5.22;2.38;;;;;;;;;;5049221;28;20056;-64
2023/12/25 09:56:06;;;;;;;5.82;2.58;;;;;;;;;;5054780;28;20535;-63
2023/12/25 09:58:33;;;;;;;4.95;2.50;;;;;;;;;;5053386;28;20045;-61
2023/12/25 10:01:01;;;;;;;5.30;2.53;;;;;;;;;;5052492;28;20044;-65
2023/12/25 10:03:33;;;;;;;5.32;2.65;;;;;;;;;;5069439;28;20084;-61
2023/12/25 10:05:59;;;;;;;6.05;2.45;;;;;;;;;;5054187;28;20496;-62
2023/12/25 10:08:25;;;;;;;5.68;2.42;;;;;;;;;;5054767;28;20053;-62
2023/12/25 10:10:56;;;;;;;3.10;2.00;;;;;;;;;;5050876;28;20049;-62
2023/12/25 10:13:25;;;;;;;5.55;2.60;;;;;;;;;;5072844;28;20048;-65
2023/12/25 10:15:51;;;;;;;4.68;2.95;;;;;;;;;;5053254;28;20106;-60
2023/12/25 10:18:19;;;;;;;7.00;2.78;;;;;;;;;;5055199;28;20101;-67
2023/12/25 10:20:58;;;;;;;3.50;2.20;;;;;;;;;;5055326;28;20559;-61
2023/12/25 10:23:29;;;;;;;3.45;2.03;;;;;;;;;;5048489;28;20048;-64
2023/12/25 10:25:56;;;;;;;5.03;2.10;;;;;;;;;;5061381;28;20194;-66
2023/12/25 10:28:34;;;;;;;3.20;1.88;;;;;;;;;;5060033;28;20484;-63
2023/12/25 10:31:08;;;;;;;2.72;1.98;;;;;;;;;;5051285;28;20072;-62
2023/12/25 10:33:36;;;;;;;2.83;1.98;;;;;;;;;;5058893;28;20064;-64
2023/12/25 10:36:05;;;;;;;6.60;1.88;;;;;;;;;;5056749;28;20048;-61
2023/12/25 10:38:48;;;;;;;2.72;1.88;;;;;;;;;;5058102;28;20052;-62
2023/12/25 10:41:33;;;;;;;3.05;2.05;;;;;;;;;;5060155;28;20052;-64
2023/12/25 10:44:02;;;;;;;4.22;2.22;;;;;;;;;;5072532;28;20190;-62
2023/12/25 10:46:34;;;;;;;9.65;1.85;;;;;;;;;;5054898;28;20044;-66
2023/12/25 10:49:03;;;;;;;8.80;2.17;;;;;;;;;;5061928;28;20052;-63
2023/12/25 10:51:38;;;;;;;4.82;2.10;;;;;;;;;;5058568;28;20518;-62
2023/12/25 10:54:06;;;;;;;4.13;2.05;;;;;;;;;;5069218;28;20056;-64
2023/12/25 10:56:36;;;;;;;3.60;2.00;;;;;;;;;;5059104;28;20040;-62
2023/12/25 10:59:13;;;;;;;4.85;2.30;;;;;;;;;;5057252;28;20045;-61
2023/12/25 11:01:45;;;;;;;3.00;1.90;;;;;;;;;;5086816;28;20113;-64
2023/12/25 11:04:16;;;;;;;3.88;2.00;;;;;;;;;;5057447;28;20068;-64
2023/12/25 11:06:47;;;;;;;7.22;2.13;;;;;;;;;;5049054;28;20053;-65
2023/12/25 11:09:17;;;;;;;6.38;2.22;;;;;;;;;;5053938;28;20161;-62
2023/12/25 11:12:23;;;;;;;5.30;2.17;;;;;;;;;;5057349;28;20055;-64
2023/12/25 11:15:19;;;;;;;3.25;2.15;;;;;;;;;;5057750;28;20127;-62
2023/12/25 11:17:45;;;;;;;7.28;2.20;;;;;;;;;;5060364;28;20060;-62
2023/12/25 11:20:12;;;;;;;3.25;1.80;;;;;;;;;;5061178;28;20129;-60
2023/12/25 11:22:44;;;;;;;2.70;1.70;;;;;;;;;;5056625;28;20057;-63
2023/12/25 11:25:18;;;;;;;3.38;2.00;;;;;;;;;;5059576;28;20044;-61
2023/12/25 11:27:51;;;;;;;4.70;1.98;;;;;;;;;;5062571;28;20504;-65
2023/12/25 11:30:20;;;;;;;3.03;1.98;;;;;;;;;;5058883;28;20122;-62
2023/12/25 11:32:53;;;;;;;6.03;2.28;;;;;;;;;;5066656;28;20736;-64
2023/12/25 11:35:32;;;;;;;3.80;1.70;;;;;;;;;;5066063;28;20373;-68
2023/12/25 11:38:24;;;;;;;5.55;2.03;;;;;;;;;;5063201;28;20063;-65
2023/12/25 11:40:50;;;;;;;5.10;1.90;;;;;;;;;;5051113;28;20143;-64
2023/12/25 11:43:21;;;;;;;5.18;2.10;;;;;;;;;;5064421;28;20041;-64
2023/12/25 11:45:52;;;;;;;4.35;2.00;;;;;;;;;;5060266;28;20055;-64
2023/12/25 11:48:19;;;;;;;6.53;1.70;;;;;;;;;;5064871;28;20496;-69
2023/12/25 11:50:57;;;;;;;7.85;2.17;;;;;;;;;;5058027;28;20046;-64
2023/12/25 11:53:50;;;;;;;2.90;1.73;;;;;;;;;;5052166;28;20068;-62
2023/12/25 11:56:17;;;;;;;8.70;2.00;;;;;;;;;;5062652;28;20438;-63
2023/12/25 11:58:48;;;;;;;2.17;1.60;;;;;;;;;;5063842;28;20061;-65
2023/12/25 12:01:17;;;;;;;3.53;2.10;;;;;;;;;;5076855;28;20044;-63
2023/12/25 12:03:48;;;;;;;1.90;1.60;;;;;;;;;;5074392;28;20056;-64
2023/12/25 12:06:20;;;;;;;3.20;1.90;;;;;;;;;;5058033;28;20056;-64
2023/12/25 12:08:48;;;;;;;3.33;1.88;;;;;;;;;;5068598;28;20467;-64
2023/12/25 12:11:15;;;;;;;3.22;1.88;;;;;;;;;;5067537;28;20064;-62
2023/12/25 12:13:43;;;;;;;3.20;1.95;;;;;;;;;;5060360;28;20041;-63
2023/12/25 12:16:10;;;;;;;3.38;2.13;;;;;;;;;;5077892;28;20048;-64
2023/12/25 12:18:36;;;;;;;5.28;2.47;;;;;;;;;;5060430;28;20275;-63
2023/12/25 12:21:04;;;;;;;4.78;2.20;;;;;;;;;;5059651;28;20049;-66
2023/12/25 12:23:31;;;;;;;5.28;2.22;;;;;;;;;;5089930;28;20143;-64
2023/12/25 12:25:59;;;;;;;2.58;1.88;;;;;;;;;;5068382;28;20504;-63
2023/12/25 12:28:26;;;;;;;2.80;1.88;;;;;;;;;;5061058;28;20047;-61
2023/12/25 12:30:56;;;;;;;6.43;3.63;;;;;;;;;;5065303;28;20444;-64
2023/12/25 12:33:24;;;;;;;5.38;2.90;;;;;;;;;;5072188;28;20075;-63
2023/12/25 12:35:55;;;;;;;3.10;1.77;;;;;;;;;;5069967;28;20600;-64
2023/12/25 12:38:22;;;;;;;4.15;2.05;;;;;;;;;;5068250;28;20048;-65
2023/12/25 12:40:49;;;;;;;4.22;2.15;;;;;;;;;;5065469;28;20053;-65
2023/12/25 12:43:19;;;;;;;7.47;2.40;;;;;;;;;;5052417;28;20105;-66
2023/12/25 12:45:46;;;;;;;3.15;2.17;;;;;;;;;;5057700;28;20049;-66
2023/12/25 12:48:17;;;;;;;7.13;2.38;;;;;;;;;;5069773;28;20056;-62
2023/12/25 12:50:44;;;;;;;3.20;2.00;;;;;;;;;;5076453;28;20266;-65
2023/12/25 12:53:11;;;;;;;5.63;2.58;;;;;;;;;;5064597;28;20044;-64
2023/12/25 12:55:38;;;;;;;4.38;1.90;;;;;;;;;;5058599;28;20056;-63
2023/12/25 12:58:06;;;;;;;4.43;2.35;;;;;;;;;;5060718;28;20052;-63
2023/12/25 13:00:31;;;;;;;7.85;3.53;;;;;;;;;;5065131;28;20090;-64
2023/12/25 13:02:58;;;;;;;8.05;3.70;;;;;;;;;;5064468;28;20048;-62
2023/12/25 13:05:25;;;;;;;7.10;3.70;;;;;;;;;;5061001;28;20541;-62
2023/12/25 13:07:52;;;;;;;5.00;2.53;;;;;;;;;;5062019;28;20045;-63
2023/12/25 13:10:18;;;;;;;4.35;2.20;;;;;;;;;;5058943;28;20194;-62
2023/12/25 13:12:45;;;;;;;6.13;2.28;;;;;;;;;;5062396;28;20057;-63
2023/12/25 13:15:11;;;;;;;4.28;2.33;;;;;;;;;;5052526;28;20044;-64
2023/12/25 13:17:38;;;;;;;7.53;2.40;;;;;;;;;;5053742;28;20044;-65
2023/12/25 13:20:09;;;;;;;3.55;2.05;;;;;;;;;;5065441;28;20060;-68
2023/12/25 13:22:37;;;;;;;4.47;1.80;;;;;;;;;;5078934;28;20285;-67
2023/12/25 13:25:05;;;;;;;3.15;2.05;;;;;;;;;;5077368;28;20492;-62
2023/12/25 13:27:32;;;;;;;5.43;2.95;;;;;;;;;;5112017;27;20086;-63
2023/12/25 13:29:58;;;;;;;8.75;3.33;;;;;;;;;;5073152;28;20532;-70
2023/12/25 13:32:28;;;;;;;4.25;2.78;;;;;;;;;;5073037;28;20061;-63
2023/12/25 13:34:54;;;;;;;7.50;2.85;;;;;;;;;;5064335;28;20111;-62
2023/12/25 13:37:20;;;;;;;8.93;3.90;;;;;;;;;;5069236;28;20280;-62
2023/12/25 13:39:49;;;;;;;7.90;4.32;;;;;;;;;;5063863;28;20149;-63
2023/12/25 13:42:15;;;;;;;6.50;3.70;;;;;;;;;;5058290;28;20063;-64
2023/12/25 13:44:46;;;;;;;7.13;4.00;;;;;;;;;;5053896;28;20536;-62
2023/12/25 13:47:15;;;;;;;9.13;4.90;;;;;;;;;;5058510;28;20459;-62
2023/12/25 13:49:41;;;;;;;9.82;4.97;;;;;;;;;;5074256;28;20045;-64
2023/12/25 13:52:08;;;;;;;8.07;4.78;;;;;;;;;;5057776;28;20134;-64
2023/12/25 13:54:35;;;;;;;9.80;4.43;;;;;;;;;;5080584;28;20040;-63
2023/12/25 13:57:02;;;;;;;7.30;4.35;;;;;;;;;;5061195;28;20135;-62
2023/12/25 13:59:29;;;;;;;7.78;3.28;;;;;;;;;;5067821;28;20564;-63
2023/12/25 14:01:55;;;;;;;5.57;3.75;;;;;;;;;;5069108;28;20044;-65
2023/12/25 14:04:21;;;;;;;6.38;3.67;;;;;;;;;;5070627;28;20101;-62
2023/12/25 14:06:48;;;;;;;15.02;6.18;;;;;;;;;;5057311;28;20052;-63
2023/12/25 14:09:15;;;;;;;9.85;5.82;;;;;;;;;;5062028;28;20051;-62
2023/12/25 14:11:41;;;;;;;8.43;4.65;;;;;;;;;;5056839;28;20045;-65
2023/12/25 14:14:07;;;;;;;6.95;4.03;;;;;;;;;;5061215;28;20590;-63
2023/12/25 14:16:34;;;;;;;7.22;3.90;;;;;;;;;;5066069;28;20048;-67
2023/12/25 14:19:02;;;;;;;8.00;3.80;;;;;;;;;;5063710;28;20044;-63
2023/12/25 14:21:31;;;;;;;8.98;3.67;;;;;;;;;;5051854;28;20150;-63
2023/12/25 14:23:57;;;;;;;7.60;4.68;;;;;;;;;;5083891;28;20048;-64
2023/12/25 14:26:23;;;;;;;8.77;4.78;;;;;;;;;;5066326;28;20046;-62
2023/12/25 14:28:50;;;;;;;6.57;3.80;;;;;;;;;;5064926;28;20054;-63
2023/12/25 14:31:17;;;;;;;8.18;3.90;;;;;;;;;;5059708;28;20053;-62
2023/12/25 14:33:43;;;;;;;8.95;4.25;;;;;;;;;;5053450;28;20067;-66
2023/12/25 14:36:12;;;;;;;8.63;3.63;;;;;;;;;;5058935;28;20511;-62
2023/12/25 14:38:41;;;;;;;11.38;4.10;;;;;;;;;;5054023;28;20053;-65
2023/12/25 14:41:11;;;;;;;8.63;3.10;;;;;;;;;;5055591;28;20048;-62
2023/12/25 14:43:39;;;;;;;5.07;3.25;;;;;;;;;;5054169;28;20114;-62
2023/12/25 14:46:10;;;;;;;4.32;3.00;;;;;;;;;;5068027;28;20435;-63
2023/12/25 14:48:36;;;;;;;6.50;2.63;;;;;;;;;;5053423;28;20074;-63
2023/12/25 14:51:02;;;;;;;3.50;2.55;;;;;;;;;;5056339;28;20054;-61
2023/12/25 14:53:28;;;;;;;4.47;2.83;;;;;;;;;;5056988;28;20123;-62
2023/12/25 14:55:54;;;;;;;5.68;2.60;;;;;;;;;;5053872;28;20051;-62
2023/12/25 14:58:22;;;;;;;3.47;2.53;;;;;;;;;;5054199;28;20048;-64
2023/12/25 15:00:49;;;;;;;3.28;2.63;;;;;;;;;;5049780;28;20048;-65
2023/12/25 15:03:15;;;;;;;39.08;22.65;;;;;;;;;;5044374;28;20052;-66
2023/12/25 15:05:43;;;;;;;10.95;5.25;;;;;;;;;;5056135;28;20058;-68